Tainan, Taiwan

1:43 AM CST on October 22, 2014 (GMT +0800)
SFSH_WeatherStation | Change Station
CLOSE
Current Station
Personal Weather Station
Location: Tainan City, TAIWAN
Elevation: 66 ft
Nearby Weather Stations

Elev 66 ft 22.97 °N, 120.30 °E | Updated 2 minutes ago

Partly Cloudy
Partly Cloudy
74.2 °F
Feels Like 73 °F
N
1.0
Wind Variable Wind from ENE
Gusts 2.0 mph

Today
High -- | Low -- °F
--% Chance of Precip.
Yesterday
High -- | Low -- °F
Precip. -- in
5:58 AM 5:28 PM
Waning Crescent, 5% visible
Pressure 29.95 in
Visibility 3.7 miles
Clouds Few 1500 ft
Heat Index 73 °F
Dew Point 70 °F
Humidity 87%
Rainfall 0.00 in
Snow Depth Not available.
UV 0.0 out of 12
Pollen Not available.
Air Quality Not available.
Flu Activity Not available.
METAR RCKH 211700Z 05003KT 010V090 6000 FEW015 25/22 Q1014 TEMPO 5000 BR RMK A2995

More Conditions Fewer Conditions

Pressure 29.95 in
Visibility 3.7 miles
Clouds Few 1500 ft
Heat Index 73 °F
Dew Point 70 °F
Humidity 87%
Rainfall 0.00 in
Snow Depth Not available.
UV 0.0 out of 12
Pollen Not available.
Air Quality Not available.
Flu Activity Not available.
METAR RCKH 211700Z 05003KT 010V090 6000 FEW015 25/22 Q1014 TEMPO 5000 BR RMK A2995

More Conditions Fewer Conditions

10-Day Weather Forecast

Almanac

Astronomy

Oct. 22, 2014 Rise Set
Actual Time 5:58 AM CST 5:28 PM CST
Civil Twilight 5:35 AM CST 5:51 PM CST
Nautical Twilight 5:09 AM CST 6:17 PM CST
Astronomical Twilight 4:43 AM CST 6:43 PM CST
Moon 4:19 AM CST (10/22) 4:26 PM CST (10/22)
Length of Visible Light 12h 15m
Length of Day
11h 29m
Tomorrow will be 1m 14s shorter.
Waning Crescent, 5% of the Moon is Illuminated
Oct 21
Waning Crescent
Oct 23
New
Oct 30
First Quarter
Nov 6
Full
Nov 14
Last Quarter

Yesterday's Extremes

Country Highs Country Lows

Community

WunderPhotos

Upload Photos

1,763,733 photos uploaded!

Nearby

Snow Depth

Not available.

Earthquake Activity

City Distance Mag. Time & Date
No recent earthquake activity has been reported nearby.
Minimum magnitude displayed is 2.5.

Coastal Water Temperatures

Place Temperature
No Stations Reporting

Nearby Weather Stations